0J4 weather

Florala Municipal Airport
Florala, Alabama, United States

Public forecast

Using degrees Fahrenheit for public forecast. Weather courtesy of forecast.io.

METAR (pilot weather report)

Retrieved 2018/06/22 01:58 UTC (57 minutes ago):

K0J4 220158Z AUTO 00000KT 10SM CLR 27/20 A2992 RMK AO2 SLP128 T02670200

TAF (pilot weather forecast)

Closest forecast is Duke Field, 25.9 nm (48.0 km) SSW. Retrieved 2018/06/22 01:05 UTC (2 hours ago):

TAF KEGI 220100Z 2201/2307 24012G18KT 9999 FEW025 SCT100 BKN250 QNH2989INS BECMG 2202/2203 24012G18KT 9000 -SHRA SCT025 BKN080 OVC120 QNH2988INS TEMPO 2210/2214 22010G15KT 4800 -TSRA BKN020CB BECMG 2213/2214 25012KT 9999 NSW FEW035 SCT080 QNH2987INS BECMG 2221/2222 24012G18KT 9999 SCT025 QNH2986INS TX34/2219Z TN23/2210Z LAST NO AMDS AFT 2205 NEXT 2213